Terminal Aerodrome Forecast
Issued by NWS Boston, MA

Current Version | Previous Version | Text Only | Print | Product List | Glossary On
Versions: 1 2 3 4 5 6 7 8 9 10 11 12 13 14 15 16 17 18 19 20 21 22 23 24 25 26 27 28 29 30 31 32 33 34 35 36 37 38 39 40 41 42 43 44 45 46 47 48
000
FTUS41 KBOX 281129
TAFBDL
TAF
KBDL 281129Z 2812/2918 19005KT P6SM OVC010
     FM281500 20008KT P6SM VCSH BKN200
     FM281800 21009KT P6SM -SHRA BKN050
     FM282100 23008KT P6SM VCSH BKN045
     FM282300 26005KT P6SM SCT050
     FM290200 32004KT P6SM FEW150=

USA.gov is the U.S. government's official web portal to all federal, state and local government web resources and services.